Time;durP1;ratioP1;P1;durP2;ratioP2;P2;SDS_P1;SDS_P2;PMS_P1;PMS_P2;Temp;Humidity;BMP_temperature;BMP_pressure;BME280_temperature;BME280_humidity;BME280_pressure;Samples;Min_cycle;Max_cycle;Signal;HPM_P1;HPM_P2
2021/01/06 00:01:25;;;;;;;2.67;1.97;;;3.40;98.00;;;;;;5068410;28;20455;-66
2021/01/06 00:03:51;;;;;;;2.90;1.73;;;3.40;98.00;;;;;;5071799;28;20456;-67
2021/01/06 00:06:23;;;;;;;2.00;1.73;;;3.50;98.00;;;;;;5069180;28;20835;-66
2021/01/06 00:08:50;;;;;;;1.10;0.90;;;3.60;98.00;;;;;;5071548;28;20458;-66
2021/01/06 00:11:17;;;;;;;1.90;1.80;;;3.60;98.00;;;;;;5069417;28;20453;-66
2021/01/06 00:13:45;;;;;;;1.10;1.00;;;3.60;98.00;;;;;;5071588;28;20826;-66
2021/01/06 00:16:11;;;;;;;1.10;0.90;;;3.60;98.00;;;;;;5069275;28;20480;-66
2021/01/06 00:18:39;;;;;;;1.40;1.30;;;3.70;98.00;;;;;;5070288;28;20522;-67
2021/01/06 00:21:06;;;;;;;1.30;1.23;;;3.80;98.00;;;;;;5069153;28;20452;-66
2021/01/06 00:23:33;;;;;;;1.10;0.90;;;3.80;98.00;;;;;;5071356;28;20881;-67
2021/01/06 00:26:01;;;;;;;1.83;1.50;;;3.70;98.00;;;;;;5069282;28;20506;-67
2021/01/06 00:28:27;;;;;;;1.63;1.10;;;3.60;98.00;;;;;;5070631;28;20454;-67
2021/01/06 00:30:56;;;;;;;1.10;1.00;;;3.60;98.00;;;;;;5069136;28;20828;-67
2021/01/06 00:33:25;;;;;;;2.40;1.57;;;3.40;98.00;;;;;;5071145;28;20461;-67
2021/01/06 00:35:53;;;;;;;1.33;1.27;;;3.40;98.00;;;;;;5068976;28;20457;-67
2021/01/06 00:38:23;;;;;;;1.10;0.90;;;3.30;98.00;;;;;;5070959;28;20496;-67
2021/01/06 00:40:49;;;;;;;1.70;1.60;;;3.30;98.00;;;;;;5069016;28;20856;-68
2021/01/06 00:43:17;;;;;;;1.30;1.10;;;3.40;98.00;;;;;;5071141;28;20461;-67
2021/01/06 00:45:44;;;;;;;1.23;1.20;;;3.50;98.00;;;;;;5069355;28;20452;-67
2021/01/06 00:48:12;;;;;;;1.47;1.37;;;3.40;98.00;;;;;;5071209;28;20464;-66
2021/01/06 00:50:40;;;;;;;1.30;1.30;;;3.50;98.00;;;;;;5069108;28;20483;-66
2021/01/06 00:53:09;;;;;;;4.60;2.27;;;3.40;98.00;;;;;;5071005;28;20457;-67
2021/01/06 00:55:36;;;;;;;1.10;1.00;;;3.20;98.00;;;;;;5067234;28;20464;-67
2021/01/06 00:58:02;;;;;;;1.10;0.90;;;3.20;98.00;;;;;;5070969;28;20549;-67
2021/01/06 01:00:31;;;;;;;1.20;1.07;;;3.40;98.00;;;;;;5066780;28;21018;-66
2021/01/06 01:02:58;;;;;;;2.70;2.50;;;3.40;98.00;;;;;;5071293;28;20456;-66
2021/01/06 01:05:26;;;;;;;1.40;1.40;;;3.50;98.00;;;;;;5067552;28;20461;-66
2021/01/06 01:07:53;;;;;;;1.50;1.10;;;3.60;98.00;;;;;;5071018;28;21121;-67
2021/01/06 01:10:38;;;;;;;1.47;1.40;;;3.60;98.00;;;;;;5068649;28;20465;-66
2021/01/06 01:13:07;;;;;;;1.80;1.37;;;3.60;98.00;;;;;;5071073;28;20445;-66
2021/01/06 01:15:37;;;;;;;2.07;1.53;;;3.60;98.00;;;;;;5068798;28;21137;-66
2021/01/06 01:18:05;;;;;;;1.27;1.23;;;3.40;98.00;;;;;;5070877;28;20541;-66
2021/01/06 01:20:31;;;;;;;1.10;1.00;;;3.30;98.00;;;;;;5068766;28;20524;-67
2021/01/06 01:22:58;;;;;;;1.73;1.27;;;3.20;98.00;;;;;;5070779;28;20947;-67
2021/01/06 01:25:27;;;;;;;1.30;1.20;;;3.00;98.00;;;;;;5068691;28;20480;-67
2021/01/06 01:27:54;;;;;;;1.40;1.30;;;3.00;98.00;;;;;;5070714;28;20461;-66
2021/01/06 01:30:23;;;;;;;1.20;1.10;;;3.00;98.00;;;;;;5068526;28;20452;-66
2021/01/06 01:32:51;;;;;;;1.70;1.20;;;3.00;98.00;;;;;;5070838;28;20799;-66
2021/01/06 01:35:20;;;;;;;1.87;1.80;;;3.00;98.00;;;;;;5068513;28;20453;-67
2021/01/06 01:37:47;;;;;;;1.40;1.30;;;3.00;98.00;;;;;;5070578;28;20484;-66
2021/01/06 01:40:19;;;;;;;1.20;1.17;;;3.00;98.00;;;;;;5069620;28;20525;-67
2021/01/06 01:42:45;;;;;;;1.40;1.23;;;3.00;98.00;;;;;;5074028;28;20456;-67
2021/01/06 01:45:13;;;;;;;6.60;2.53;;;2.90;98.00;;;;;;5071936;28;20466;-66
2021/01/06 01:47:52;;;;;;;1.93;1.80;;;2.80;98.00;;;;;;5072852;28;20794;-65
2021/01/06 01:50:22;;;;;;;1.10;1.10;;;2.90;98.00;;;;;;5071899;28;20964;-66
2021/01/06 01:52:52;;;;;;;1.27;1.20;;;3.00;98.00;;;;;;5074397;28;20463;-66
2021/01/06 01:55:20;;;;;;;1.73;1.43;;;3.00;98.00;;;;;;5072012;28;20483;-66
2021/01/06 01:57:50;;;;;;;1.10;1.00;;;3.10;98.00;;;;;;5074005;28;20544;-67
2021/01/06 02:00:20;;;;;;;1.50;1.30;;;3.20;98.00;;;;;;5072052;28;20461;-67
2021/01/06 02:03:00;;;;;;;1.70;1.10;;;3.20;98.00;;;;;;5073958;28;20457;-67
2021/01/06 02:05:32;;;;;;;1.20;1.00;;;3.10;98.00;;;;;;5071978;28;20459;-67
2021/01/06 02:08:08;;;;;;;1.57;1.30;;;3.10;98.00;;;;;;5073396;28;20523;-66
2021/01/06 02:10:38;;;;;;;1.10;1.00;;;3.20;98.00;;;;;;5070864;28;20456;-67
2021/01/06 02:13:13;;;;;;;3.20;2.10;;;3.20;98.00;;;;;;5073075;28;20453;-66
2021/01/06 02:15:44;;;;;;;1.20;1.10;;;3.20;98.00;;;;;;5071401;28;20459;-66
2021/01/06 02:18:11;;;;;;;1.10;1.00;;;3.20;98.00;;;;;;5073359;28;20949;-66
2021/01/06 02:20:39;;;;;;;1.57;1.20;;;3.10;98.00;;;;;;5071496;28;20514;-65
2021/01/06 02:23:06;;;;;;;1.20;1.20;;;3.00;98.00;;;;;;5073456;28;20502;-67
2021/01/06 02:25:39;;;;;;;1.20;1.10;;;3.00;98.00;;;;;;5070928;28;20503;-66
2021/01/06 02:28:06;;;;;;;1.30;1.20;;;3.00;98.00;;;;;;5072235;28;20453;-66
2021/01/06 02:30:33;;;;;;;1.30;1.30;;;3.00;98.00;;;;;;5071095;28;20460;-65
2021/01/06 02:33:00;;;;;;;1.10;1.00;;;3.00;98.00;;;;;;5073157;28;20519;-66
2021/01/06 02:35:27;;;;;;;1.23;1.20;;;3.00;98.00;;;;;;5071057;28;20522;-67
2021/01/06 02:37:53;;;;;;;1.87;1.77;;;3.00;98.00;;;;;;5073011;28;20480;-67
2021/01/06 02:40:25;;;;;;;1.73;1.63;;;3.10;98.00;;;;;;5070915;28;20461;-67
2021/01/06 02:42:52;;;;;;;2.33;1.77;;;3.00;98.00;;;;;;5072959;28;20788;-66
2021/01/06 02:45:20;;;;;;;1.40;1.30;;;3.00;98.00;;;;;;5070814;28;20543;-66
2021/01/06 02:47:49;;;;;;;1.10;1.10;;;3.00;98.00;;;;;;5072805;28;20811;-66
2021/01/06 02:50:19;;;;;;;1.30;1.10;;;3.00;98.00;;;;;;5070864;28;20453;-66
2021/01/06 02:52:52;;;;;;;1.53;1.10;;;3.00;98.00;;;;;;5070899;28;21017;-65
2021/01/06 02:55:20;;;;;;;1.20;1.13;;;3.00;98.00;;;;;;5070303;28;20460;-66
2021/01/06 02:57:48;;;;;;;1.97;1.10;;;3.00;98.00;;;;;;5072465;28;20987;-67
2021/01/06 03:00:20;;;;;;;1.97;1.43;;;2.90;98.00;;;;;;5070787;28;20468;-67
2021/01/06 03:02:48;;;;;;;1.10;0.90;;;2.90;98.00;;;;;;5072795;28;20492;-67
2021/01/06 03:05:20;;;;;;;1.70;1.60;;;3.00;98.00;;;;;;5070539;28;20448;-67
2021/01/06 03:07:48;;;;;;;1.60;1.10;;;2.90;98.00;;;;;;5072482;28;20441;-66
2021/01/06 03:10:17;;;;;;;1.80;1.70;;;3.00;98.00;;;;;;5070590;28;20501;-65
2021/01/06 03:12:44;;;;;;;1.53;1.20;;;2.90;98.00;;;;;;5072638;28;21024;-67
2021/01/06 03:15:15;;;;;;;1.33;1.00;;;3.00;98.00;;;;;;5070547;28;20459;-68
2021/01/06 03:17:41;;;;;;;1.10;0.90;;;3.00;98.00;;;;;;5072266;28;20484;-67
2021/01/06 03:20:12;;;;;;;1.63;1.57;;;3.00;98.00;;;;;;5069985;28;20796;-66
2021/01/06 03:22:42;;;;;;;1.63;1.30;;;2.90;98.00;;;;;;5072328;28;20468;-68
2021/01/06 03:25:12;;;;;;;1.33;1.27;;;2.80;98.00;;;;;;5070361;28;20796;-67
2021/01/06 03:27:41;;;;;;;2.50;1.10;;;2.80;98.00;;;;;;5071988;28;20514;-65
2021/01/06 03:30:10;;;;;;;1.67;1.30;;;2.80;98.00;;;;;;5070050;28;20469;-66
2021/01/06 03:32:45;;;;;;;1.30;1.27;;;2.80;98.00;;;;;;5072164;28;20456;-66
2021/01/06 03:35:20;;;;;;;1.53;1.47;;;2.90;98.00;;;;;;5069935;28;20460;-65
2021/01/06 03:37:52;;;;;;;1.10;1.00;;;2.80;98.00;;;;;;5071972;28;20545;-67
2021/01/06 03:40:24;;;;;;;1.10;1.10;;;2.90;98.00;;;;;;5069551;28;21003;-66
2021/01/06 03:42:52;;;;;;;1.47;1.30;;;2.90;98.00;;;;;;5071914;28;20465;-67
2021/01/06 03:45:23;;;;;;;1.10;0.90;;;2.90;98.00;;;;;;5069595;28;20456;-67
2021/01/06 03:47:58;;;;;;;2.70;1.80;;;2.90;98.00;;;;;;5071811;28;20457;-67
2021/01/06 03:50:30;;;;;;;2.93;2.07;;;2.90;98.00;;;;;;5069687;28;20968;-68
2021/01/06 03:53:08;;;;;;;1.70;1.50;;;2.90;98.00;;;;;;5071823;28;20463;-69
2021/01/06 03:55:44;;;;;;;1.20;1.17;;;2.90;98.00;;;;;;5069597;28;20460;-67
2021/01/06 03:58:18;;;;;;;1.93;1.70;;;2.90;98.00;;;;;;5071642;28;20495;-67
2021/01/06 04:00:50;;;;;;;1.53;1.43;;;2.80;98.00;;;;;;5069562;28;20460;-66
2021/01/06 04:03:30;;;;;;;2.67;2.47;;;3.00;98.00;;;;;;5070696;28;20513;-65
2021/01/06 04:05:58;;;;;;;3.20;1.40;;;2.90;98.00;;;;;;5069626;28;20452;-67
2021/01/06 04:08:40;;;;;;;1.20;1.10;;;2.90;98.00;;;;;;5071935;28;20465;-66
2021/01/06 04:11:08;;;;;;;1.10;0.90;;;2.90;98.00;;;;;;5069492;28;20460;-66
2021/01/06 04:13:35;;;;;;;1.80;1.40;;;2.90;98.00;;;;;;5071739;28;20604;-66
2021/01/06 04:16:01;;;;;;;1.60;1.30;;;2.90;98.00;;;;;;5069489;28;20538;-67
2021/01/06 04:18:29;;;;;;;1.60;1.47;;;2.80;98.00;;;;;;5071488;28;20492;-66
2021/01/06 04:21:02;;;;;;;5.50;1.60;;;2.80;98.00;;;;;;5069296;28;20452;-66
2021/01/06 04:23:29;;;;;;;1.20;1.10;;;2.90;98.00;;;;;;5071496;28;20952;-67
2021/01/06 04:25:56;;;;;;;1.50;1.50;;;2.90;98.00;;;;;;5069413;28;20460;-66
2021/01/06 04:28:24;;;;;;;1.40;1.33;;;2.90;98.00;;;;;;5071456;28;20465;-68
2021/01/06 04:30:53;;;;;;;1.60;1.20;;;2.90;98.00;;;;;;5068897;28;20457;-65
2021/01/06 04:33:22;;;;;;;1.10;1.00;;;2.90;98.00;;;;;;5071348;28;20461;-67
2021/01/06 04:35:51;;;;;;;1.40;1.40;;;2.90;98.00;;;;;;5068934;28;20451;-66
2021/01/06 04:38:19;;;;;;;1.77;1.27;;;2.90;98.00;;;;;;5069939;28;21022;-65
2021/01/06 04:40:49;;;;;;;2.70;1.43;;;2.90;98.00;;;;;;5069005;28;20995;-66
2021/01/06 04:43:28;;;;;;;2.30;1.00;;;2.90;98.00;;;;;;5071106;28;20457;-67
2021/01/06 04:46:17;;;;;;;1.47;1.30;;;2.80;98.00;;;;;;5069233;28;20522;-67
2021/01/06 04:48:55;;;;;;;2.23;1.67;;;2.70;98.00;;;;;;5070930;28;20510;-67
2021/01/06 04:51:40;;;;;;;1.40;1.33;;;2.70;98.00;;;;;;5068972;28;20467;-66
2021/01/06 04:54:48;;;;;;;1.20;1.10;;;2.70;98.00;;;;;;5071219;28;20460;-66
2021/01/06 04:57:25;;;;;;;1.20;1.10;;;2.70;98.00;;;;;;5071079;28;20491;-66
2021/01/06 05:00:22;;;;;;;1.77;1.40;;;2.70;98.00;;;;;;5068801;28;20932;-66
2021/01/06 05:03:27;;;;;;;1.53;1.17;;;2.60;98.00;;;;;;5065629;28;21025;-65
2021/01/06 05:06:31;;;;;;;1.70;1.30;;;2.70;98.00;;;;;;5066497;28;20806;-67
2021/01/06 05:09:03;;;;;;;2.60;1.97;;;2.70;98.00;;;;;;5070965;28;20467;-66
2021/01/06 05:11:33;;;;;;;13.73;1.83;;;2.70;98.00;;;;;;5069051;28;20490;-66
2021/01/06 05:14:04;;;;;;;2.60;1.77;;;2.70;98.00;;;;;;5070010;28;20448;-67
2021/01/06 05:16:36;;;;;;;1.10;1.00;;;2.70;98.00;;;;;;5072416;28;20935;-67
2021/01/06 05:19:04;;;;;;;1.63;1.57;;;2.70;98.00;;;;;;5074872;28;20923;-66
2021/01/06 05:21:33;;;;;;;3.57;1.60;;;2.70;98.00;;;;;;5072554;28;20464;-67
2021/01/06 05:24:03;;;;;;;1.77;1.67;;;2.70;98.00;;;;;;5074698;28;20461;-66
2021/01/06 05:26:30;;;;;;;1.40;1.30;;;2.70;98.00;;;;;;5072558;28;20452;-68
2021/01/06 05:28:56;;;;;;;1.20;1.07;;;2.70;98.00;;;;;;5074518;28;20468;-67
2021/01/06 05:31:23;;;;;;;1.90;1.37;;;2.80;98.00;;;;;;5072613;28;20459;-66
2021/01/06 05:33:52;;;;;;;1.40;1.33;;;2.90;98.00;;;;;;5074480;28;20463;-65
2021/01/06 05:36:24;;;;;;;1.10;1.00;;;3.00;98.00;;;;;;5072123;28;20467;-68
2021/01/06 05:38:52;;;;;;;1.17;1.13;;;3.10;98.00;;;;;;5073072;28;20518;-68
2021/01/06 05:41:19;;;;;;;1.50;1.13;;;3.00;98.00;;;;;;5072218;28;20453;-66
2021/01/06 05:43:50;;;;;;;1.80;1.47;;;2.80;98.00;;;;;;5074106;28;20529;-66
2021/01/06 05:46:25;;;;;;;3.60;2.10;;;2.80;98.00;;;;;;5072143;28;20499;-69
2021/01/06 05:48:55;;;;;;;1.53;1.27;;;2.80;98.00;;;;;;5074074;28;20452;-68
2021/01/06 05:51:26;;;;;;;1.90;1.80;;;2.70;98.00;;;;;;5071955;28;20459;-67
2021/01/06 05:54:00;;;;;;;1.57;1.27;;;2.70;98.00;;;;;;5074016;28;20511;-65
2021/01/06 05:56:46;;;;;;;1.70;1.10;;;2.80;98.00;;;;;;5071841;28;20460;-66
2021/01/06 05:59:23;;;;;;;3.37;1.50;;;2.90;98.00;;;;;;5073768;28;20464;-67
2021/01/06 06:01:54;;;;;;;1.40;1.27;;;2.90;98.00;;;;;;5071725;28;20453;-66
2021/01/06 06:07:38;;;;;;;1.10;0.90;;;3.10;98.00;;;;;;5068228;28;20461;-67
2021/01/06 06:10:33;;;;;;;1.20;1.00;;;2.90;98.00;;;;;;5071892;28;20934;-67
2021/01/06 06:13:17;;;;;;;1.10;1.00;;;2.80;98.00;;;;;;5066453;28;20457;-66
2021/01/06 06:16:25;;;;;;;1.10;0.90;;;2.70;98.00;;;;;;5071591;28;20974;-66
2021/01/06 06:19:06;;;;;;;2.90;1.10;;;2.70;98.00;;;;;;5072628;28;20850;-67
2021/01/06 06:21:41;;;;;;;1.50;1.30;;;2.80;98.00;;;;;;5071620;28;21011;-66
2021/01/06 06:24:38;;;;;;;1.20;1.17;;;2.80;98.00;;;;;;5073729;28;20490;-66
2021/01/06 06:27:32;;;;;;;4.13;1.83;;;2.80;98.00;;;;;;5069644;28;20465;-65
2021/01/06 06:30:19;;;;;;;1.10;1.00;;;2.90;98.00;;;;;;5071233;28;20524;-66
2021/01/06 06:32:48;;;;;;;1.67;1.33;;;2.80;98.00;;;;;;5073373;28;20463;-67
2021/01/06 06:35:21;;;;;;;2.40;2.20;;;2.80;98.00;;;;;;5071360;28;20877;-66
2021/01/06 06:37:50;;;;;;;22.57;3.33;;;2.70;98.00;;;;;;5073139;28;20487;-67
2021/01/06 06:40:18;;;;;;;1.10;1.00;;;2.90;98.00;;;;;;5071117;28;20456;-67
2021/01/06 06:42:56;;;;;;;1.37;1.30;;;2.90;98.00;;;;;;5055491;28;20453;-65
2021/01/06 06:45:43;;;;;;;1.80;1.40;;;2.90;98.00;;;;;;5071180;28;20460;-65
2021/01/06 06:48:18;;;;;;;1.10;1.00;;;2.80;98.00;;;;;;5071812;28;21027;-67
2021/01/06 06:50:59;;;;;;;1.33;1.33;;;2.80;98.00;;;;;;5069416;28;20482;-69
2021/01/06 06:53:36;;;;;;;4.60;1.33;;;2.80;98.00;;;;;;5072959;28;20498;-66
2021/01/06 06:56:38;;;;;;;1.20;1.07;;;2.80;98.00;;;;;;5070678;28;20518;-67
2021/01/06 06:59:10;;;;;;;3.13;1.93;;;2.80;98.00;;;;;;5072556;28;20467;-66
2021/01/06 07:01:41;;;;;;;1.10;1.00;;;2.80;98.00;;;;;;5070451;28;20820;-67
2021/01/06 07:04:17;;;;;;;1.70;1.43;;;2.80;98.00;;;;;;5071672;28;20458;-67
2021/01/06 07:06:54;;;;;;;3.87;1.90;;;2.70;98.00;;;;;;5070490;28;20460;-66
2021/01/06 07:09:28;;;;;;;1.10;0.90;;;2.70;98.00;;;;;;5072423;28;20457;-66
2021/01/06 07:12:05;;;;;;;1.20;1.10;;;2.70;98.00;;;;;;5070334;28;20464;-66
2021/01/06 07:14:35;;;;;;;2.23;1.60;;;2.70;98.00;;;;;;5072255;28;20452;-66
2021/01/06 07:17:09;;;;;;;1.73;1.30;;;2.70;98.00;;;;;;5070460;28;21022;-66
2021/01/06 07:19:39;;;;;;;1.87;1.77;;;2.70;98.00;;;;;;5072490;28;20966;-66
2021/01/06 07:22:30;;;;;;;1.10;1.00;;;2.70;98.00;;;;;;5070538;28;20517;-66
2021/01/06 07:25:02;;;;;;;1.83;1.43;;;2.70;98.00;;;;;;5071168;28;20681;-66
2021/01/06 07:27:31;;;;;;;1.10;0.90;;;2.70;98.00;;;;;;5072218;28;21094;-66
2021/01/06 07:29:59;;;;;;;1.30;1.30;;;2.60;98.00;;;;;;5070312;28;20525;-66
2021/01/06 07:32:36;;;;;;;1.10;1.00;;;2.70;98.00;;;;;;5072411;28;20460;-66
2021/01/06 07:35:11;;;;;;;1.50;1.30;;;2.70;98.00;;;;;;5070007;28;20447;-66
2021/01/06 07:37:41;;;;;;;1.10;1.00;;;2.70;98.00;;;;;;5071778;28;20491;-67
2021/01/06 07:40:22;;;;;;;1.93;1.53;;;2.70;98.00;;;;;;5069864;28;20463;-67
2021/01/06 07:42:52;;;;;;;1.10;1.10;;;2.70;98.00;;;;;;5071955;28;20490;-67
2021/01/06 07:45:34;;;;;;;1.20;1.00;;;2.70;98.00;;;;;;5069031;28;20934;-65
2021/01/06 07:48:18;;;;;;;1.10;1.00;;;2.80;98.00;;;;;;5070943;28;20459;-68
2021/01/06 07:51:06;;;;;;;2.60;1.70;;;2.80;98.00;;;;;;5068957;28;20832;-67
2021/01/06 07:53:39;;;;;;;1.80;1.60;;;2.70;98.00;;;;;;5071731;28;20460;-66
2021/01/06 07:56:15;;;;;;;1.97;1.57;;;2.70;98.00;;;;;;5068981;28;20468;-66
2021/01/06 07:58:45;;;;;;;2.87;2.03;;;2.70;98.00;;;;;;5071258;28;20488;-67
2021/01/06 08:01:30;;;;;;;1.10;1.00;;;2.70;98.00;;;;;;5069621;28;20522;-66
2021/01/06 08:04:01;;;;;;;1.50;1.20;;;2.70;98.00;;;;;;5071292;28;20484;-68
2021/01/06 08:06:49;;;;;;;2.07;1.73;;;2.70;98.00;;;;;;5069174;28;20463;-67
2021/01/06 08:09:30;;;;;;;1.27;1.13;;;2.70;98.00;;;;;;5071288;28;20448;-66
2021/01/06 08:11:57;;;;;;;1.60;1.47;;;2.70;98.00;;;;;;5069313;28;20461;-66
2021/01/06 08:14:28;;;;;;;2.73;1.77;;;2.80;98.00;;;;;;5071473;28;20769;-67
2021/01/06 08:16:59;;;;;;;1.87;1.40;;;2.80;98.00;;;;;;5069129;28;20851;-67
2021/01/06 08:19:31;;;;;;;1.20;1.20;;;2.90;98.00;;;;;;5071568;28;20530;-67
2021/01/06 08:22:02;;;;;;;1.10;1.00;;;2.90;98.00;;;;;;5069191;28;20460;-66
2021/01/06 08:24:35;;;;;;;1.30;1.07;;;2.80;98.00;;;;;;5071675;28;20470;-66
2021/01/06 08:27:03;;;;;;;1.10;1.00;;;2.90;98.00;;;;;;5069697;28;20453;-68
2021/01/06 08:29:32;;;;;;;1.93;1.63;;;2.80;98.00;;;;;;5071411;28;20485;-67
2021/01/06 08:32:02;;;;;;;1.13;1.00;;;2.80;98.00;;;;;;5069166;28;20453;-68
2021/01/06 08:34:32;;;;;;;1.40;1.20;;;2.80;98.00;;;;;;5070970;28;20460;-65
2021/01/06 08:37:02;;;;;;;1.60;1.50;;;2.70;98.00;;;;;;5068569;28;20456;-68
2021/01/06 08:39:32;;;;;;;1.10;0.90;;;2.90;98.00;;;;;;5071257;28;20460;-67
2021/01/06 08:42:08;;;;;;;2.37;1.40;;;3.00;98.00;;;;;;5069174;28;20792;-66
2021/01/06 08:44:40;;;;;;;1.87;1.10;;;3.00;98.00;;;;;;5071300;28;20915;-66
2021/01/06 08:47:10;;;;;;;1.10;1.00;;;3.00;98.00;;;;;;5069197;28;20849;-66
2021/01/06 08:49:38;;;;;;;1.83;1.10;;;3.00;98.00;;;;;;5071629;28;20470;-65
2021/01/06 08:52:20;;;;;;;1.67;1.47;;;3.10;98.00;;;;;;5072966;28;20944;-66
2021/01/06 08:54:58;;;;;;;1.10;0.90;;;3.10;98.00;;;;;;5075212;28;20463;-66
2021/01/06 08:57:28;;;;;;;4.23;1.57;;;2.90;98.00;;;;;;5073118;28;20487;-66
2021/01/06 08:59:55;;;;;;;2.10;1.67;;;3.10;98.00;;;;;;5075057;28;20457;-67
2021/01/06 09:02:32;;;;;;;1.20;1.20;;;3.20;98.00;;;;;;5072906;28;20464;-67
2021/01/06 09:04:59;;;;;;;1.10;1.00;;;3.10;98.00;;;;;;5074930;28;20459;-66
2021/01/06 09:07:27;;;;;;;3.10;1.40;;;3.20;98.00;;;;;;5072874;28;20460;-67
2021/01/06 09:10:30;;;;;;;1.63;1.17;;;3.20;98.00;;;;;;5074112;28;20947;-67
2021/01/06 09:13:03;;;;;;;1.30;1.20;;;3.10;98.00;;;;;;5042574;28;20468;-68
2021/01/06 09:15:36;;;;;;;1.50;1.20;;;3.00;98.00;;;;;;5072536;28;20498;-66
2021/01/06 09:18:18;;;;;;;1.20;1.10;;;3.00;98.00;;;;;;5073092;28;20549;-65
2021/01/06 09:21:04;;;;;;;1.30;1.27;;;3.00;98.00;;;;;;5072154;28;20543;-66
2021/01/06 09:23:32;;;;;;;1.23;1.23;;;2.90;98.00;;;;;;5073814;28;20451;-65
2021/01/06 09:25:59;;;;;;;1.10;0.97;;;2.80;98.00;;;;;;5071444;28;20456;-66
2021/01/06 09:28:27;;;;;;;1.10;1.00;;;2.90;98.00;;;;;;5073928;28;20477;-66
2021/01/06 09:30:55;;;;;;;1.10;1.00;;;2.90;98.00;;;;;;5071913;28;20471;-64
2021/01/06 09:33:26;;;;;;;1.43;1.33;;;2.80;98.00;;;;;;5073952;28;20463;-64
2021/01/06 09:35:53;;;;;;;2.33;1.37;;;2.80;98.00;;;;;;5070386;28;20467;-65
2021/01/06 09:38:27;;;;;;;1.57;1.47;;;2.90;98.00;;;;;;5073997;28;20841;-64
2021/01/06 09:40:58;;;;;;;1.97;1.10;;;2.90;98.00;;;;;;5071588;28;20980;-67
2021/01/06 09:43:34;;;;;;;1.40;1.30;;;3.00;98.00;;;;;;5073896;28;20455;-65
2021/01/06 09:46:00;;;;;;;1.10;0.93;;;2.90;98.00;;;;;;5071452;28;20463;-65
2021/01/06 09:48:29;;;;;;;1.10;1.00;;;2.80;98.00;;;;;;5073672;28;21039;-66
2021/01/06 09:51:01;;;;;;;1.00;1.00;;;3.60;98.00;;;;;;5071570;28;20456;-66
2021/01/06 09:53:30;;;;;;;1.30;1.23;;;4.90;98.00;;;;;;5073588;28;20460;-67
2021/01/06 09:55:57;;;;;;;2.47;1.23;;;5.00;98.00;;;;;;5071325;28;20464;-67
2021/01/06 09:58:30;;;;;;;4.70;2.43;;;4.40;98.00;;;;;;5071996;28;20481;-65
2021/01/06 10:01:06;;;;;;;1.10;0.97;;;4.00;98.00;;;;;;5071483;28;20487;-67
2021/01/06 10:03:37;;;;;;;2.10;1.97;;;3.70;98.00;;;;;;5073152;28;20469;-68
2021/01/06 10:06:18;;;;;;;1.93;1.83;;;3.50;98.00;;;;;;5071007;28;20514;-65
2021/01/06 10:08:48;;;;;;;1.10;0.90;;;3.40;98.00;;;;;;5072038;28;20490;-68
2021/01/06 10:11:36;;;;;;;1.10;1.00;;;3.50;98.00;;;;;;5071248;28;20467;-65
2021/01/06 10:14:34;;;;;;;1.73;1.10;;;3.50;98.00;;;;;;5072921;28;20970;-66
2021/01/06 10:17:04;;;;;;;1.17;1.10;;;3.50;98.00;;;;;;5066259;28;20465;-65
2021/01/06 10:19:40;;;;;;;1.57;1.20;;;3.20;98.00;;;;;;5073185;28;20804;-66
2021/01/06 10:22:35;;;;;;;1.83;1.23;;;3.00;98.00;;;;;;5070706;28;20464;-65
2021/01/06 10:25:19;;;;;;;1.10;1.00;;;2.80;98.00;;;;;;5072765;28;20537;-65
2021/01/06 10:27:57;;;;;;;3.30;1.73;;;2.80;98.00;;;;;;5072932;28;20467;-67
2021/01/06 10:30:25;;;;;;;1.70;1.33;;;2.70;98.00;;;;;;5070758;28;20950;-65
2021/01/06 10:33:09;;;;;;;1.40;1.10;;;2.70;98.00;;;;;;5072900;28;20519;-66
2021/01/06 10:35:45;;;;;;;2.13;1.40;;;2.60;98.00;;;;;;5069998;28;21035;-67
2021/01/06 10:38:28;;;;;;;1.10;0.90;;;2.60;98.00;;;;;;5072478;28;20488;-66
2021/01/06 10:41:09;;;;;;;1.30;1.10;;;2.70;98.00;;;;;;5070703;28;20802;-66
2021/01/06 10:43:41;;;;;;;1.10;0.90;;;2.60;98.00;;;;;;5072771;28;20460;-67
2021/01/06 10:46:44;;;;;;;2.27;2.03;;;2.60;98.00;;;;;;5070584;28;20463;-65
2021/01/06 10:49:45;;;;;;;1.10;0.97;;;2.60;98.00;;;;;;5072600;28;20459;-65
2021/01/06 10:52:27;;;;;;;1.20;1.20;;;2.40;98.00;;;;;;5070443;28;20454;-65
2021/01/06 10:55:24;;;;;;;1.10;0.97;;;2.30;98.00;;;;;;5072063;28;20463;-67
2021/01/06 10:57:56;;;;;;;1.30;1.10;;;2.30;98.00;;;;;;5067153;28;21016;-66
2021/01/06 11:00:24;;;;;;;1.20;1.00;;;2.30;98.00;;;;;;5070362;28;20472;-66
2021/01/06 11:03:17;;;;;;;2.80;1.67;;;2.30;98.00;;;;;;5072328;28;20460;-67
2021/01/06 11:05:58;;;;;;;1.57;1.33;;;2.30;98.00;;;;;;5070162;28;20506;-66
2021/01/06 11:09:04;;;;;;;1.10;1.00;;;2.30;98.00;;;;;;5072244;28;20467;-66
2021/01/06 11:11:54;;;;;;;1.10;1.10;;;2.40;98.00;;;;;;5070087;28;20456;-67
2021/01/06 11:14:56;;;;;;;2.50;1.20;;;2.70;98.00;;;;;;5071398;28;20462;-66
2021/01/06 11:17:32;;;;;;;1.10;1.00;;;2.90;98.00;;;;;;5069651;28;20463;-67
2021/01/06 11:20:01;;;;;;;1.40;1.27;;;2.90;98.00;;;;;;5071993;28;20464;-66
2021/01/06 11:22:38;;;;;;;1.30;1.10;;;2.80;98.00;;;;;;5069904;28;20464;-68
2021/01/06 11:25:43;;;;;;;1.10;1.07;;;2.70;98.00;;;;;;5071932;28;20518;-66
2021/01/06 11:28:31;;;;;;;1.43;1.30;;;2.70;98.00;;;;;;5068632;28;21084;-65
2021/01/06 11:31:21;;;;;;;1.10;0.90;;;2.70;98.00;;;;;;5069784;28;20468;-67
2021/01/06 11:33:49;;;;;;;1.27;1.20;;;2.60;98.00;;;;;;5071341;28;20486;-67
2021/01/06 11:36:42;;;;;;;1.10;1.00;;;2.50;98.00;;;;;;5069435;28;20514;-65
2021/01/06 11:39:10;;;;;;;1.10;1.10;;;2.30;98.00;;;;;;5071633;28;20540;-66
2021/01/06 11:42:02;;;;;;;1.10;1.00;;;2.40;98.00;;;;;;5069490;28;20452;-68
2021/01/06 11:44:32;;;;;;;1.10;1.00;;;2.40;98.00;;;;;;5071265;28;20456;-66
2021/01/06 11:47:11;;;;;;;1.10;1.00;;;2.40;98.00;;;;;;5069640;28;20460;-65
2021/01/06 11:50:00;;;;;;;1.20;1.10;;;2.30;98.00;;;;;;5071535;28;20456;-66
2021/01/06 11:52:32;;;;;;;2.37;1.10;;;2.40;98.00;;;;;;5069901;28;20460;-65
2021/01/06 11:55:08;;;;;;;1.67;1.57;;;2.40;98.00;;;;;;5071305;28;20463;-65
2021/01/06 11:57:53;;;;;;;1.10;1.00;;;2.40;98.00;;;;;;5069851;28;20494;-66
2021/01/06 12:00:53;;;;;;;1.10;1.00;;;2.40;98.00;;;;;;5071370;28;20452;-66
2021/01/06 12:03:25;;;;;;;1.10;0.90;;;2.40;98.00;;;;;;5071633;28;20470;-66
2021/01/06 12:06:05;;;;;;;2.33;1.73;;;2.50;98.00;;;;;;5069168;28;20475;-66
2021/01/06 12:09:05;;;;;;;1.10;1.00;;;2.50;98.00;;;;;;5071306;28;20451;-67
2021/01/06 12:11:37;;;;;;;1.40;1.27;;;2.70;98.00;;;;;;5069460;28;20517;-65
2021/01/06 12:14:21;;;;;;;1.20;1.00;;;2.70;98.00;;;;;;5070916;28;20457;-66
2021/01/06 12:17:14;;;;;;;1.10;1.00;;;2.60;98.00;;;;;;5069016;28;20460;-65
2021/01/06 12:20:00;;;;;;;3.73;1.23;;;2.60;98.00;;;;;;5070931;28;20942;-65
2021/01/06 12:22:27;;;;;;;1.20;1.10;;;2.60;98.00;;;;;;5069432;28;20478;-67
2021/01/06 12:25:00;;;;;;;1.10;1.10;;;2.70;98.00;;;;;;5068809;28;20493;-66
2021/01/06 12:28:02;;;;;;;1.10;1.00;;;2.70;98.00;;;;;;5068985;28;20547;-67
2021/01/06 12:30:37;;;;;;;1.10;1.00;;;2.70;98.00;;;;;;5006930;28;20459;-66
2021/01/06 12:33:29;;;;;;;1.27;1.20;;;2.70;98.00;;;;;;5059311;28;20514;-66
2021/01/06 12:36:14;;;;;;;1.43;1.30;;;2.80;98.00;;;;;;5068472;28;20823;-65
2021/01/06 12:38:41;;;;;;;1.10;1.10;;;2.80;98.00;;;;;;5070924;28;21094;-65
2021/01/06 12:41:16;;;;;;;1.27;1.17;;;2.70;98.00;;;;;;5068777;28;20456;-67
2021/01/06 12:43:49;;;;;;;1.47;1.47;;;2.80;98.00;;;;;;5069115;28;20456;-66
2021/01/06 12:46:40;;;;;;;1.30;1.20;;;2.70;98.00;;;;;;5068781;28;20947;-67
2021/01/06 12:49:23;;;;;;;1.20;1.17;;;2.70;98.00;;;;;;5069462;28;20705;-66
2021/01/06 12:52:13;;;;;;;1.30;1.27;;;2.60;98.00;;;;;;5068676;28;20455;-66
2021/01/06 12:54:43;;;;;;;1.20;1.13;;;2.40;98.00;;;;;;5070373;28;20540;-67
2021/01/06 12:57:19;;;;;;;1.33;1.30;;;2.50;98.00;;;;;;5068711;28;20486;-66
2021/01/06 12:59:49;;;;;;;3.30;1.87;;;2.70;98.00;;;;;;5070463;28;20474;-66
2021/01/06 13:02:33;;;;;;;2.40;1.50;;;2.70;98.00;;;;;;5068799;28;20827;-65
2021/01/06 13:05:16;;;;;;;1.10;0.97;;;2.60;98.00;;;;;;5070309;28;20456;-66
2021/01/06 13:07:49;;;;;;;1.10;1.00;;;2.70;98.00;;;;;;5068467;28;20453;-67
2021/01/06 13:10:36;;;;;;;1.73;1.67;;;2.80;98.00;;;;;;5070769;28;20472;-66
2021/01/06 13:13:24;;;;;;;1.10;1.00;;;2.70;98.00;;;;;;5070654;28;20472;-67
2021/01/06 13:15:57;;;;;;;2.70;1.30;;;2.70;98.00;;;;;;5068153;28;20456;-67
2021/01/06 13:18:41;;;;;;;1.40;1.40;;;2.50;98.00;;;;;;5070376;28;20838;-65
2021/01/06 13:21:21;;;;;;;2.77;2.10;;;2.40;98.00;;;;;;5068398;28;20463;-66
2021/01/06 13:24:00;;;;;;;1.20;1.10;;;2.40;98.00;;;;;;5070226;28;20942;-67
2021/01/06 13:26:35;;;;;;;1.30;1.10;;;2.30;98.00;;;;;;5068262;28;20467;-66
2021/01/06 13:29:12;;;;;;;1.40;1.20;;;2.30;98.00;;;;;;5069795;28;20830;-67
2021/01/06 13:31:42;;;;;;;1.10;0.90;;;2.30;98.00;;;;;;5067471;28;20799;-66
2021/01/06 13:34:27;;;;;;;1.83;1.30;;;2.50;98.00;;;;;;5068939;28;20479;-66
2021/01/06 13:36:58;;;;;;;2.33;1.20;;;2.50;98.00;;;;;;5068422;28;21003;-64
2021/01/06 13:39:39;;;;;;;1.97;1.50;;;2.40;98.00;;;;;;5073739;28;20833;-67
2021/01/06 13:42:31;;;;;;;1.90;1.73;;;2.40;98.00;;;;;;5071481;28;21027;-65